createdAt,value
2023-03-19T00:02:42.131Z,63.55
2023-03-19T00:05:11.589Z,65.40
2023-03-19T00:07:40.797Z,68.22
2023-03-19T00:10:10.490Z,74.25
2023-03-19T00:12:39.889Z,69.57
2023-03-19T00:18:09.825Z,66.28
2023-03-19T00:20:56.731Z,67.63
2023-03-19T00:26:14.747Z,75.68
2023-03-19T00:28:44.269Z,79.45
2023-03-19T00:31:17.776Z,80.25
2023-03-19T00:36:36.685Z,86.55
2023-03-19T00:39:06.957Z,73.38
2023-03-19T00:41:36.203Z,68.22
2023-03-19T00:44:07.126Z,71.57
2023-03-19T00:49:38.259Z,68.50
2023-03-19T00:52:11.530Z,61.97
2023-03-19T00:54:40.798Z,60.85
2023-03-19T00:57:10.325Z,62.10
2023-03-19T00:59:39.590Z,64.82
2023-03-19T01:02:11.920Z,59.25
2023-03-19T01:04:41.332Z,59.58
2023-03-19T01:07:10.763Z,56.95
2023-03-19T01:09:40.472Z,60.35
2023-03-19T01:12:11.819Z,59.50
2023-03-19T01:23:18.157Z,71.75
2023-03-19T01:28:39.216Z,67.60
2023-03-19T01:34:16.997Z,65.28
2023-03-19T01:39:47.634Z,73.28
2023-03-19T01:49:02.410Z,63.15
2023-03-19T01:51:53.403Z,60.40
2023-03-19T02:00:45.844Z,64.63
2023-03-19T02:03:16.441Z,67.10
2023-03-19T02:11:41.927Z,110.97
2023-03-19T02:14:17.103Z,62.22
2023-03-19T02:16:57.230Z,71.50
2023-03-19T02:19:59.013Z,64.13
2023-03-19T02:22:37.731Z,64.82
2023-03-19T02:25:48.821Z,66.93
2023-03-19T02:28:37.258Z,62.35
2023-03-19T02:31:14.875Z,60.70
2023-03-19T02:34:30.729Z,74.72
2023-03-19T02:37:13.605Z,69.65
2023-03-19T02:48:33.345Z,59.50
2023-03-19T02:59:14.570Z,63.42
2023-03-19T03:01:53.569Z,64.57
2023-03-19T03:04:34.331Z,67.63
2023-03-19T03:07:14.455Z,59.30
2023-03-19T03:09:45.841Z,61.67
2023-03-19T03:12:17.122Z,71.82
2023-03-19T03:17:39.578Z,62.90
2023-03-19T03:22:57.004Z,61.95
2023-03-19T03:25:31.576Z,53.08
2023-03-19T03:28:01.037Z,55.75
2023-03-19T03:30:42.916Z,56.88
2023-03-19T03:33:18.263Z,54.97
2023-03-19T03:35:47.946Z,53.22
2023-03-19T03:38:17.600Z,65.28
2023-03-19T03:40:46.820Z,59.92
2023-03-19T03:43:16.828Z,57.05
2023-03-19T03:45:46.772Z,54.80
2023-03-19T03:48:17.119Z,54.15
2023-03-19T03:50:46.870Z,65.50
2023-03-19T03:53:17.056Z,60.60
2023-03-19T03:55:46.715Z,54.20
2023-03-19T03:58:15.953Z,58.65
2023-03-19T04:00:45.348Z,58.58
2023-03-19T04:03:14.664Z,66.30
2023-03-19T04:05:44.773Z,51.40
2023-03-19T04:08:13.982Z,55.92
2023-03-19T04:10:44.748Z,62.30
2023-03-19T04:13:14.837Z,52.05
2023-03-19T04:15:47.518Z,52.33
2023-03-19T04:18:16.743Z,50.95
2023-03-19T04:20:45.819Z,57.28
2023-03-19T04:23:14.934Z,49.88
2023-03-19T04:25:44.058Z,65.68
2023-03-19T04:28:13.119Z,55.60
2023-03-19T04:30:42.596Z,52.10
2023-03-19T04:33:13.051Z,58.53
2023-03-19T04:35:42.500Z,48.63
2023-03-19T04:38:11.785Z,49.05
2023-03-19T04:40:40.883Z,54.92
2023-03-19T04:43:09.972Z,47.13
2023-03-19T04:45:39.190Z,53.33
2023-03-19T04:48:09.661Z,54.70
2023-03-19T04:50:39.233Z,50.58
2023-03-19T04:53:09.018Z,49.25
2023-03-19T04:55:38.211Z,45.50
2023-03-19T04:58:07.704Z,53.28
2023-03-19T05:00:37.084Z,51.00
2023-03-19T05:03:06.377Z,49.45
2023-03-19T05:05:35.594Z,54.22
2023-03-19T05:08:05.291Z,45.90
2023-03-19T05:10:36.013Z,40.53
2023-03-19T05:13:06.863Z,50.45
2023-03-19T05:15:36.463Z,41.45
2023-03-19T05:18:06.198Z,49.45
2023-03-19T05:20:35.858Z,46.28
2023-03-19T05:23:05.694Z,47.65
2023-03-19T05:25:37.061Z,40.22
2023-03-19T05:28:08.244Z,47.85
2023-03-19T05:30:38.181Z,42.22
2023-03-19T05:33:08.123Z,46.15
2023-03-19T05:35:39.228Z,44.30
2023-03-19T05:38:09.222Z,42.75
2023-03-19T05:40:38.652Z,41.35
2023-03-19T05:43:07.882Z,46.40
2023-03-19T05:45:37.861Z,67.38
2023-03-19T05:48:07.512Z,44.92
2023-03-19T05:50:36.786Z,39.28
2023-03-19T05:53:05.997Z,39.45
2023-03-19T05:55:35.165Z,43.95
2023-03-19T05:58:04.363Z,39.78
2023-03-19T06:00:33.922Z,38.75
2023-03-19T06:03:03.553Z,33.40
2023-03-19T06:05:32.954Z,38.13
2023-03-19T06:08:02.241Z,31.58
2023-03-19T06:10:31.757Z,41.95
2023-03-19T06:13:01.413Z,33.65
2023-03-19T06:15:30.822Z,32.65
2023-03-19T06:18:00.208Z,33.50
2023-03-19T06:20:29.339Z,33.35
2023-03-19T06:22:58.462Z,32.47
2023-03-19T06:25:28.047Z,39.10
2023-03-19T06:27:57.139Z,33.53
2023-03-19T06:30:26.667Z,29.95
2023-03-19T06:32:55.773Z,31.65
2023-03-19T06:35:25.250Z,34.22
2023-03-19T06:37:54.494Z,32.08
2023-03-19T06:40:23.850Z,36.97
2023-03-19T06:42:53.301Z,43.17
2023-03-19T06:45:22.426Z,29.05
2023-03-19T06:47:53.480Z,36.17
2023-03-19T06:50:22.834Z,33.67
2023-03-19T06:52:52.040Z,32.45
2023-03-19T06:55:21.589Z,36.35
2023-03-19T06:57:52.242Z,30.77
2023-03-19T07:00:21.795Z,32.50
2023-03-19T07:02:50.961Z,34.45
2023-03-19T07:05:20.135Z,31.63
2023-03-19T07:07:49.257Z,31.77
2023-03-19T07:10:22.034Z,31.83
2023-03-19T07:12:51.541Z,43.67
2023-03-19T07:15:22.403Z,32.38
2023-03-19T07:17:51.728Z,40.22
2023-03-19T07:20:20.985Z,37.72
2023-03-19T07:22:52.750Z,34.05
2023-03-19T07:25:22.637Z,38.95
2023-03-19T07:27:53.540Z,38.00
2023-03-19T07:30:25.230Z,37.15
2023-03-19T07:32:54.363Z,31.85
2023-03-19T07:35:23.677Z,34.25
2023-03-19T07:37:52.856Z,33.33
2023-03-19T07:40:21.959Z,38.90
2023-03-19T07:42:51.148Z,36.72
2023-03-19T07:45:20.431Z,36.95
2023-03-19T07:47:52.519Z,32.97
2023-03-19T07:50:22.065Z,35.40
2023-03-19T07:52:55.108Z,40.00
2023-03-19T07:55:24.324Z,39.00
2023-03-19T07:57:53.670Z,43.05
2023-03-19T08:00:23.135Z,43.80
2023-03-19T08:02:52.358Z,39.25
2023-03-19T08:05:21.614Z,33.83
2023-03-19T08:07:52.182Z,38.55
2023-03-19T08:10:21.753Z,35.92
2023-03-19T08:12:51.897Z,41.83
2023-03-19T08:15:21.120Z,39.50
2023-03-19T08:17:50.834Z,41.03
2023-03-19T08:20:20.392Z,43.40
2023-03-19T08:22:52.102Z,38.53
2023-03-19T08:25:21.527Z,37.25
2023-03-19T08:27:51.985Z,36.95
2023-03-19T08:30:21.654Z,38.83
2023-03-19T08:32:51.544Z,35.53
2023-03-19T08:35:21.370Z,36.97
2023-03-19T08:37:50.568Z,35.88
2023-03-19T08:40:20.114Z,37.05
2023-03-19T08:42:49.976Z,37.22
2023-03-19T08:45:19.525Z,41.95
2023-03-19T08:47:50.191Z,43.15
2023-03-19T08:50:20.694Z,43.05
2023-03-19T08:52:49.953Z,34.40
2023-03-19T08:55:20.052Z,38.08
2023-03-19T08:57:49.278Z,36.30
2023-03-19T09:00:20.516Z,34.17
2023-03-19T09:02:50.098Z,30.73
2023-03-19T09:05:23.323Z,36.65
2023-03-19T09:07:53.864Z,38.55
2023-03-19T09:10:23.130Z,49.70
2023-03-19T09:12:52.462Z,35.90
2023-03-19T09:15:21.673Z,35.05
2023-03-19T09:17:50.942Z,34.08
2023-03-19T09:20:20.653Z,36.38
2023-03-19T09:22:49.993Z,30.75
2023-03-19T09:25:19.370Z,37.15
2023-03-19T09:27:48.630Z,35.13
2023-03-19T09:30:18.008Z,38.05
2023-03-19T09:32:47.465Z,38.45
2023-03-19T09:35:16.851Z,31.45
2023-03-19T09:37:46.047Z,44.45
2023-03-19T09:40:45.040Z,35.80
2023-03-19T09:43:26.522Z,38.30
2023-03-19T09:45:55.855Z,39.58
2023-03-19T09:48:53.587Z,35.88
2023-03-19T09:52:11.480Z,38.38
2023-03-19T09:54:49.396Z,36.20
2023-03-19T09:59:50.043Z,37.63
2023-03-19T10:02:43.953Z,41.80
2023-03-19T10:05:28.174Z,44.67
2023-03-19T10:08:40.371Z,33.53
2023-03-19T10:11:28.769Z,42.67
2023-03-19T10:14:18.034Z,58.53
2023-03-19T10:16:52.442Z,40.25
2023-03-19T10:19:40.712Z,36.60
2023-03-19T10:22:18.853Z,36.63
2023-03-19T10:27:27.452Z,47.10
2023-03-19T10:29:57.768Z,41.03
2023-03-19T10:33:27.301Z,44.25
2023-03-19T10:36:16.392Z,45.78
2023-03-19T10:38:46.445Z,43.60
2023-03-19T10:41:42.601Z,42.42
2023-03-19T10:44:33.301Z,42.15
2023-03-19T10:47:14.449Z,51.67
2023-03-19T10:49:44.405Z,47.88
2023-03-19T10:52:38.217Z,42.70
2023-03-19T10:55:18.858Z,52.53
2023-03-19T10:57:53.248Z,48.28
2023-03-19T11:00:30.850Z,61.08
2023-03-19T11:03:00.412Z,53.47
2023-03-19T11:05:33.189Z,51.35
2023-03-19T11:08:35.031Z,44.90
2023-03-19T11:11:05.234Z,47.28
2023-03-19T11:13:37.926Z,49.80
2023-03-19T11:16:07.725Z,42.63
2023-03-19T11:18:42.136Z,46.92
2023-03-19T11:21:25.798Z,43.78
2023-03-19T11:24:03.797Z,49.20
2023-03-19T11:29:07.133Z,47.25
2023-03-19T11:31:50.611Z,61.97
2023-03-19T11:34:49.124Z,49.58
2023-03-19T11:37:59.482Z,45.88
2023-03-19T11:40:53.544Z,57.15
2023-03-19T11:43:58.471Z,46.15
2023-03-19T11:46:47.166Z,41.03
2023-03-19T11:49:43.458Z,46.88
2023-03-19T11:52:41.632Z,50.40
2023-03-19T11:55:50.631Z,39.65
2023-03-19T11:58:58.977Z,47.22
2023-03-19T12:01:58.443Z,57.63
2023-03-19T12:04:57.496Z,63.13
2023-03-19T12:08:02.863Z,65.60
2023-03-19T12:10:43.991Z,61.75
2023-03-19T12:13:49.679Z,59.65
2023-03-19T12:16:37.012Z,63.53
2023-03-19T12:19:49.693Z,63.13
2023-03-19T12:22:55.766Z,52.35
2023-03-19T12:26:40.154Z,71.40
2023-03-19T12:29:42.129Z,54.33
2023-03-19T12:32:25.541Z,49.88
2023-03-19T12:35:12.812Z,57.58
2023-03-19T12:37:55.130Z,56.97
2023-03-19T12:40:49.576Z,52.65
2023-03-19T12:43:48.701Z,54.70
2023-03-19T12:46:45.512Z,55.42
2023-03-19T12:49:20.123Z,49.00
2023-03-19T12:52:05.393Z,60.22
2023-03-19T12:54:43.108Z,53.80
2023-03-19T12:57:23.762Z,54.28
2023-03-19T13:00:19.202Z,58.80
2023-03-19T13:03:21.731Z,56.22
2023-03-19T13:06:36.630Z,57.95
2023-03-19T13:09:34.358Z,56.53
2023-03-19T13:12:24.873Z,58.00
2023-03-19T13:15:06.574Z,67.35
2023-03-19T13:18:05.948Z,69.88
2023-03-19T13:21:11.387Z,75.85
2023-03-19T13:23:43.990Z,62.55
2023-03-19T13:26:15.519Z,54.55
2023-03-19T13:29:02.502Z,67.97
2023-03-19T13:31:37.779Z,60.65
2023-03-19T13:34:30.843Z,59.00
2023-03-19T13:37:19.269Z,55.10
2023-03-19T13:39:50.676Z,54.83
2023-03-19T13:42:44.780Z,52.97
2023-03-19T13:45:30.782Z,51.17
2023-03-19T13:48:46.323Z,50.50
2023-03-19T13:51:24.877Z,41.17
2023-03-19T13:54:24.097Z,48.58
2023-03-19T13:57:02.579Z,46.55
2023-03-19T13:59:37.183Z,43.45
2023-03-19T14:02:26.490Z,50.05
2023-03-19T14:05:36.737Z,46.78
2023-03-19T14:08:30.514Z,48.95
2023-03-19T14:11:02.998Z,45.15
2023-03-19T14:13:44.229Z,43.13
2023-03-19T14:16:21.056Z,48.55
2023-03-19T14:18:55.913Z,43.40
2023-03-19T14:21:59.357Z,63.92
2023-03-19T14:25:06.034Z,47.80
2023-03-19T14:27:44.840Z,44.22
2023-03-19T14:30:41.734Z,49.92
2023-03-19T14:33:28.029Z,44.65
2023-03-19T14:36:04.026Z,42.90
2023-03-19T14:38:48.917Z,49.63
2023-03-19T14:41:23.753Z,57.78
2023-03-19T14:43:53.599Z,47.72
2023-03-19T14:47:13.756Z,52.22
2023-03-19T14:50:03.919Z,53.45
2023-03-19T14:53:05.918Z,52.10
2023-03-19T14:55:39.834Z,59.30
2023-03-19T14:58:14.582Z,54.30
2023-03-19T15:00:56.986Z,52.55
2023-03-19T15:03:40.109Z,56.95
2023-03-19T15:06:15.048Z,52.55
2023-03-19T15:08:44.889Z,63.45
2023-03-19T15:11:19.699Z,59.85
2023-03-19T15:13:51.897Z,49.47
2023-03-19T15:16:58.655Z,51.03
2023-03-19T15:19:33.702Z,53.03
2023-03-19T15:22:23.544Z,49.05
2023-03-19T15:24:53.103Z,53.15
2023-03-19T15:27:28.562Z,52.05
2023-03-19T15:30:08.866Z,57.25
2023-03-19T15:33:04.437Z,50.40
2023-03-19T15:35:37.765Z,49.30
2023-03-19T15:38:14.718Z,52.67
2023-03-19T15:40:46.464Z,64.18
2023-03-19T15:43:16.490Z,51.63
2023-03-19T15:45:52.511Z,64.15
2023-03-19T15:48:37.824Z,43.63
2023-03-19T15:51:11.546Z,50.30
2023-03-19T15:53:41.796Z,50.13
2023-03-19T15:56:15.170Z,49.75
2023-03-19T15:58:53.059Z,51.53
2023-03-19T16:01:25.934Z,43.55
2023-03-19T16:04:17.313Z,51.85
2023-03-19T16:06:51.793Z,48.22
2023-03-19T16:09:31.077Z,47.42
2023-03-19T16:12:06.207Z,42.53
2023-03-19T16:14:43.298Z,49.75
2023-03-19T16:17:21.372Z,53.78
2023-03-19T16:20:03.593Z,52.60
2023-03-19T16:22:34.632Z,49.05
2023-03-19T16:25:07.903Z,46.97
2023-03-19T16:27:42.099Z,57.08
2023-03-19T16:30:30.902Z,49.55
2023-03-19T16:33:06.602Z,43.97
2023-03-19T16:35:38.600Z,49.55
2023-03-19T16:38:17.921Z,51.38
2023-03-19T16:40:50.403Z,53.17
2023-03-19T16:43:35.386Z,59.67
2023-03-19T16:46:13.457Z,66.25
2023-03-19T16:48:42.731Z,71.25
2023-03-19T16:51:22.472Z,61.35
2023-03-19T16:53:51.875Z,69.05
2023-03-19T16:56:21.940Z,59.50
2023-03-19T16:58:51.328Z,71.07
2023-03-19T17:01:25.620Z,79.63
2023-03-19T17:03:55.675Z,70.63
2023-03-19T17:06:25.044Z,64.40
2023-03-19T17:08:54.206Z,60.88
2023-03-19T17:11:30.547Z,64.82
2023-03-19T17:14:00.931Z,58.28
2023-03-19T17:16:31.258Z,63.45
2023-03-19T17:19:00.948Z,58.97
2023-03-19T17:21:34.660Z,59.38
2023-03-19T17:24:33.016Z,58.15
2023-03-19T17:27:04.995Z,63.83
2023-03-19T17:29:34.892Z,77.90
2023-03-19T17:32:05.739Z,70.55
2023-03-19T17:34:36.809Z,62.97
2023-03-19T17:37:12.265Z,64.00
2023-03-19T17:39:43.394Z,65.20
2023-03-19T17:42:23.732Z,68.00
2023-03-19T17:44:53.345Z,65.35
2023-03-19T17:47:23.020Z,67.85
2023-03-19T17:49:52.275Z,64.22
2023-03-19T17:52:22.158Z,59.28
2023-03-19T17:54:51.327Z,55.10
2023-03-19T17:57:20.466Z,63.88
2023-03-19T17:59:49.581Z,51.53
2023-03-19T18:02:32.613Z,57.70
2023-03-19T18:05:01.779Z,50.80
2023-03-19T18:07:30.999Z,51.50
2023-03-19T18:10:00.202Z,52.42
2023-03-19T18:12:29.409Z,47.42
2023-03-19T18:14:59.189Z,51.00
2023-03-19T18:17:28.433Z,50.92
2023-03-19T18:19:57.714Z,44.03
2023-03-19T18:22:28.274Z,45.22
2023-03-19T18:24:59.067Z,52.47
2023-03-19T18:27:28.226Z,43.22
2023-03-19T18:29:57.373Z,43.90
2023-03-19T18:32:33.597Z,49.70
2023-03-19T18:35:04.437Z,46.20
2023-03-19T18:37:35.800Z,40.83
2023-03-19T18:40:05.798Z,43.10
2023-03-19T18:42:34.913Z,47.88
2023-03-19T18:45:04.125Z,50.22
2023-03-19T18:47:33.642Z,44.75
2023-03-19T18:50:02.865Z,38.72
2023-03-19T18:52:32.202Z,45.42
2023-03-19T18:55:01.395Z,42.85
2023-03-19T18:57:30.611Z,42.83
2023-03-19T19:00:01.279Z,42.97
2023-03-19T19:02:39.216Z,37.60
2023-03-19T19:05:08.676Z,38.92
2023-03-19T19:07:37.777Z,37.05
2023-03-19T19:10:08.509Z,43.60
2023-03-19T19:12:40.373Z,37.38
2023-03-19T19:15:29.053Z,45.47
2023-03-19T19:17:59.008Z,43.65
2023-03-19T19:20:30.870Z,42.58
2023-03-19T19:23:00.023Z,42.17
2023-03-19T19:25:31.068Z,45.45
2023-03-19T19:28:10.008Z,43.63
2023-03-19T19:30:39.717Z,45.47
2023-03-19T19:33:22.028Z,44.70
2023-03-19T19:35:53.047Z,51.10
2023-03-19T19:38:22.495Z,43.28
2023-03-19T19:40:55.376Z,39.65
2023-03-19T19:43:30.265Z,40.15
2023-03-19T19:46:01.268Z,33.95
2023-03-19T19:48:32.516Z,35.53
2023-03-19T19:51:02.147Z,30.30
2023-03-19T19:53:31.925Z,39.80
2023-03-19T19:56:02.447Z,36.97
2023-03-19T19:58:34.941Z,33.28
2023-03-19T20:01:04.780Z,28.92
2023-03-19T20:03:36.053Z,34.97
2023-03-19T20:06:05.480Z,34.67
2023-03-19T20:08:34.626Z,31.67
2023-03-19T20:11:04.960Z,34.28
2023-03-19T20:13:38.794Z,30.15
2023-03-19T20:16:08.511Z,30.98
2023-03-19T20:18:40.535Z,29.00
2023-03-19T20:21:09.697Z,33.42
2023-03-19T20:23:38.819Z,32.85
2023-03-19T20:26:08.170Z,31.73
2023-03-19T20:28:37.425Z,28.23
2023-03-19T20:31:07.262Z,29.83
2023-03-19T20:33:38.308Z,32.95
2023-03-19T20:36:08.031Z,26.85
2023-03-19T20:38:37.725Z,32.97
2023-03-19T20:41:21.166Z,28.23
2023-03-19T20:43:51.768Z,34.28
2023-03-19T20:46:24.099Z,29.58
2023-03-19T20:48:53.415Z,29.45
2023-03-19T20:51:27.017Z,28.52
2023-03-19T20:53:56.384Z,30.60
2023-03-19T20:56:29.033Z,29.75
2023-03-19T20:58:58.232Z,29.45
2023-03-19T21:01:27.686Z,32.20
2023-03-19T21:03:57.023Z,29.08
2023-03-19T21:06:27.037Z,30.73
2023-03-19T21:09:00.568Z,34.92
2023-03-19T21:11:43.162Z,30.88
2023-03-19T21:14:17.199Z,31.17
2023-03-19T21:16:46.384Z,32.33
2023-03-19T21:19:15.469Z,39.28
2023-03-19T21:21:45.026Z,41.58
2023-03-19T21:24:18.833Z,34.90
2023-03-19T21:26:48.713Z,39.53
2023-03-19T21:29:34.408Z,38.50
2023-03-19T21:32:03.582Z,38.40
2023-03-19T21:34:32.740Z,34.88
2023-03-19T21:37:02.131Z,35.75
2023-03-19T21:39:32.341Z,36.30
2023-03-19T21:42:08.964Z,35.50
2023-03-19T21:44:39.881Z,39.65
2023-03-19T21:47:19.750Z,37.25
2023-03-19T21:49:49.581Z,35.13
2023-03-19T21:52:24.534Z,39.17
2023-03-19T21:54:53.688Z,39.22
2023-03-19T21:57:22.828Z,35.42
2023-03-19T21:59:51.949Z,36.42
2023-03-19T22:02:24.236Z,40.58
2023-03-19T22:04:53.386Z,35.60
2023-03-19T22:07:22.605Z,36.60
2023-03-19T22:09:51.722Z,39.55
2023-03-19T22:12:30.143Z,31.40
2023-03-19T22:17:30.168Z,48.63
2023-03-19T22:19:59.754Z,36.88
2023-03-19T22:22:28.880Z,32.65
2023-03-19T22:25:00.209Z,32.42
2023-03-19T22:27:29.490Z,32.92
2023-03-19T22:30:02.142Z,32.67
2023-03-19T22:32:31.424Z,36.88
2023-03-19T22:35:02.665Z,32.40
2023-03-19T22:37:33.260Z,35.60
2023-03-19T22:40:02.413Z,33.58
2023-03-19T22:42:31.889Z,37.08
2023-03-19T22:45:01.185Z,31.35
2023-03-19T22:47:31.531Z,29.42
2023-03-19T22:50:01.087Z,32.90
2023-03-19T22:52:30.720Z,39.00
2023-03-19T22:54:59.889Z,35.97
2023-03-19T22:57:29.041Z,37.55
2023-03-19T22:59:58.154Z,36.22
2023-03-19T23:02:28.146Z,31.00
2023-03-19T23:04:57.268Z,30.90
2023-03-19T23:07:26.357Z,31.88
2023-03-19T23:09:56.106Z,32.58
2023-03-19T23:12:25.197Z,41.75
2023-03-19T23:14:54.772Z,36.88
2023-03-19T23:17:23.934Z,33.42
2023-03-19T23:19:55.401Z,39.30
2023-03-19T23:22:24.545Z,37.92
2023-03-19T23:24:53.711Z,30.75
2023-03-19T23:27:37.906Z,38.78
2023-03-19T23:30:07.854Z,43.53
2023-03-19T23:32:37.197Z,34.08
2023-03-19T23:35:18.760Z,39.80
2023-03-19T23:37:48.731Z,36.45
2023-03-19T23:40:20.565Z,52.10
2023-03-19T23:42:54.831Z,45.83
2023-03-19T23:45:30.574Z,49.35
2023-03-19T23:48:16.600Z,42.47
2023-03-19T23:50:48.000Z,38.13
2023-03-19T23:53:25.258Z,45.28
2023-03-19T23:56:05.691Z,46.28
2023-03-19T23:58:41.294Z,45.75
